createdAt,value
2022-12-04T00:01:31.571Z,97307.27
2022-12-04T00:04:02.190Z,97301.69
2022-12-04T00:06:32.279Z,97300.83
2022-12-04T00:09:02.783Z,97301.02
2022-12-04T00:11:33.862Z,97304.89
2022-12-04T00:14:07.204Z,97307.36
2022-12-04T00:16:38.078Z,97307.95
2022-12-04T00:19:07.074Z,97306.79
2022-12-04T00:21:37.208Z,97311.08
2022-12-04T00:24:08.017Z,97310.80
2022-12-04T00:26:36.843Z,97314.28
2022-12-04T00:29:08.964Z,97310.70
2022-12-04T00:31:40.698Z,97309.97
2022-12-04T00:34:11.170Z,97311.94
2022-12-04T00:36:41.133Z,97313.88
2022-12-04T00:39:11.447Z,97308.50
2022-12-04T00:41:43.517Z,97308.16
2022-12-04T00:44:13.684Z,97313.54
2022-12-04T00:46:44.548Z,97317.78
2022-12-04T00:49:14.779Z,97321.77
2022-12-04T00:51:44.971Z,97321.42
2022-12-04T00:54:15.174Z,97324.34
2022-12-04T00:56:45.439Z,97322.16
2022-12-04T00:59:15.924Z,97315.40
2022-12-04T01:01:46.217Z,97310.96
2022-12-04T01:04:16.944Z,97311.61
2022-12-04T01:06:47.581Z,97315.66
2022-12-04T01:09:17.842Z,97312.44
2022-12-04T01:11:48.054Z,97308.69
2022-12-04T01:14:18.571Z,97304.79
2022-12-04T01:16:49.035Z,97306.94
2022-12-04T01:19:18.857Z,97308.24
2022-12-04T01:21:49.001Z,97309.77
2022-12-04T01:24:19.446Z,97306.52
2022-12-04T01:26:49.897Z,97310.46
2022-12-04T01:29:20.426Z,97308.74
2022-12-04T01:31:50.601Z,97303.77
2022-12-04T01:34:20.348Z,97297.38
2022-12-04T01:36:51.596Z,97294.04
2022-12-04T01:39:21.610Z,97290.34
2022-12-04T01:41:51.513Z,97291.34
2022-12-04T01:44:24.008Z,97295.95
2022-12-04T01:46:56.892Z,97294.38
2022-12-04T01:49:40.137Z,97290.99
2022-12-04T01:52:20.284Z,97291.27
2022-12-04T01:55:00.782Z,97294.52
2022-12-04T01:57:33.043Z,97295.77
2022-12-04T02:00:12.753Z,97293.84
2022-12-04T02:02:46.350Z,97290.98
2022-12-04T02:05:19.787Z,97286.47
2022-12-04T02:07:53.634Z,97284.15
2022-12-04T02:10:34.456Z,97279.39
2022-12-04T02:13:48.916Z,97274.61
2022-12-04T02:16:48.629Z,97272.45
2022-12-04T02:19:51.615Z,97274.51
2022-12-04T02:22:56.305Z,97278.65
2022-12-04T02:25:26.978Z,97276.75
2022-12-04T02:28:30.224Z,97281.08
2022-12-04T02:31:02.932Z,97294.27
2022-12-04T02:33:43.695Z,97294.06
2022-12-04T02:36:42.691Z,97296.85
2022-12-04T02:39:25.296Z,97294.55
2022-12-04T02:42:03.803Z,97292.88
2022-12-04T02:44:54.254Z,97293.32
2022-12-04T02:47:27.509Z,97292.83
2022-12-04T02:50:05.878Z,97292.87
2022-12-04T02:52:47.102Z,97288.85
2022-12-04T02:55:44.208Z,97284.48
2022-12-04T02:58:32.828Z,97289.53
2022-12-04T03:01:20.425Z,97287.37
2022-12-04T03:04:12.299Z,97288.36
2022-12-04T03:06:46.384Z,97285.80
2022-12-04T03:09:37.194Z,97285.89
2022-12-04T03:12:20.954Z,97287.70
2022-12-04T03:15:08.953Z,97289.23
2022-12-04T03:17:48.383Z,97286.88
2022-12-04T03:20:20.205Z,97283.60
2022-12-04T03:22:58.070Z,97279.85
2022-12-04T03:25:40.295Z,97272.85
2022-12-04T03:28:43.445Z,97275.13
2022-12-04T03:31:16.666Z,97275.73
2022-12-04T03:33:50.845Z,97280.22
2022-12-04T03:36:29.925Z,97283.02
2022-12-04T03:39:13.415Z,97287.73
2022-12-04T03:42:04.627Z,97286.73
2022-12-04T03:44:45.062Z,97289.53
2022-12-04T03:47:34.190Z,97281.84
2022-12-04T03:50:09.541Z,97282.17
2022-12-04T03:52:51.707Z,97275.82
2022-12-04T03:55:24.517Z,97276.08
2022-12-04T03:58:00.541Z,97269.63
2022-12-04T04:00:33.529Z,97273.02
2022-12-04T04:03:34.667Z,97272.00
2022-12-04T04:06:16.848Z,97270.48
2022-12-04T04:08:54.061Z,97270.46
2022-12-04T04:11:49.833Z,97276.02
2022-12-04T04:14:55.537Z,97280.36
2022-12-04T04:17:50.835Z,97285.50
2022-12-04T04:20:49.196Z,97279.58
2022-12-04T04:23:41.777Z,97277.79
2022-12-04T04:26:15.912Z,97279.84
2022-12-04T04:28:46.990Z,97278.98
2022-12-04T04:32:02.787Z,97280.08
2022-12-04T04:34:53.144Z,97281.33
2022-12-04T04:37:41.774Z,97280.17
2022-12-04T04:40:36.389Z,97275.70
2022-12-04T04:43:17.885Z,97277.21
2022-12-04T04:46:22.106Z,97281.29
2022-12-04T04:48:59.461Z,97280.05
2022-12-04T04:51:34.708Z,97275.50
2022-12-04T04:54:09.564Z,97269.79
2022-12-04T04:56:48.181Z,97270.95
2022-12-04T04:59:19.006Z,97273.77
2022-12-04T05:01:49.607Z,97268.72
2022-12-04T05:04:20.096Z,97271.23
2022-12-04T05:06:50.150Z,97264.16
2022-12-04T05:09:20.386Z,97265.48
2022-12-04T05:11:50.475Z,97267.69
2022-12-04T05:14:20.803Z,97273.34
2022-12-04T05:16:50.778Z,97274.57
2022-12-04T05:19:42.828Z,97273.66
2022-12-04T05:22:13.721Z,97274.80
2022-12-04T05:24:44.111Z,97275.10
2022-12-04T05:27:14.048Z,97270.25
2022-12-04T05:29:44.205Z,97271.27
2022-12-04T05:32:14.966Z,97263.30
2022-12-04T05:34:47.587Z,97266.66
2022-12-04T05:37:17.996Z,97262.10
2022-12-04T05:39:48.279Z,97262.31
2022-12-04T05:42:18.734Z,97264.58
2022-12-04T05:44:50.522Z,97258.36
2022-12-04T05:47:20.516Z,97261.61
2022-12-04T05:49:50.582Z,97264.09
2022-12-04T05:52:20.923Z,97271.81
2022-12-04T05:54:51.416Z,97266.07
2022-12-04T05:57:21.051Z,97272.98
2022-12-04T05:59:53.948Z,97275.48
2022-12-04T06:02:24.552Z,97282.47
2022-12-04T06:04:54.556Z,97288.19
2022-12-04T06:07:23.421Z,97286.73
2022-12-04T06:09:55.960Z,97278.01
2022-12-04T06:12:25.915Z,97279.85
2022-12-04T06:14:56.143Z,97284.34
2022-12-04T06:17:25.987Z,97289.77
2022-12-04T06:19:56.750Z,97290.02
2022-12-04T06:22:26.843Z,97290.76
2022-12-04T06:24:57.208Z,97287.09
2022-12-04T06:27:28.281Z,97293.54
2022-12-04T06:29:59.050Z,97299.42
2022-12-04T06:32:29.432Z,97292.77
2022-12-04T06:34:59.379Z,97286.52
2022-12-04T06:37:28.256Z,97281.75
2022-12-04T06:39:58.390Z,97281.79
2022-12-04T06:42:28.678Z,97283.73
2022-12-04T06:44:58.138Z,97281.17
2022-12-04T06:47:28.170Z,97279.27
2022-12-04T06:49:57.796Z,97279.29
2022-12-04T06:52:28.191Z,97282.83
2022-12-04T06:54:59.437Z,97287.11
2022-12-04T06:57:29.340Z,97291.52
2022-12-04T06:59:59.048Z,97290.52
2022-12-04T07:02:29.390Z,97288.92
2022-12-04T07:04:59.660Z,97283.73
2022-12-04T07:07:29.684Z,97286.09
2022-12-04T07:09:59.476Z,97290.08
2022-12-04T07:12:29.544Z,97289.78
2022-12-04T07:14:59.073Z,97293.56
2022-12-04T07:17:28.641Z,97289.70
2022-12-04T07:19:57.749Z,97291.05
2022-12-04T07:22:28.625Z,97296.10
2022-12-04T07:24:58.815Z,97288.52
2022-12-04T07:27:31.868Z,97281.13
2022-12-04T07:30:01.514Z,97281.95
2022-12-04T07:32:31.984Z,97283.88
2022-12-04T07:35:02.120Z,97288.33
2022-12-04T07:37:32.594Z,97287.91
2022-12-04T07:40:04.163Z,97287.01
2022-12-04T07:42:34.085Z,97287.34
2022-12-04T07:45:04.205Z,97289.36
2022-12-04T07:47:36.917Z,97285.86
2022-12-04T07:50:09.209Z,97287.59
2022-12-04T07:52:40.533Z,97284.88
2022-12-04T07:55:11.053Z,97280.84
2022-12-04T07:57:41.519Z,97281.92
2022-12-04T08:00:12.550Z,97281.83
2022-12-04T08:02:42.642Z,97280.00
2022-12-04T08:05:11.532Z,97276.14
2022-12-04T08:07:41.681Z,97275.44
2022-12-04T08:10:12.130Z,97274.32
2022-12-04T08:12:42.191Z,97270.31
2022-12-04T08:15:12.250Z,97273.92
2022-12-04T08:17:44.214Z,97273.98
2022-12-04T08:20:14.259Z,97272.45
2022-12-04T08:22:44.157Z,97274.42
2022-12-04T08:25:13.744Z,97271.90
2022-12-04T08:27:47.773Z,97267.96
2022-12-04T08:30:18.218Z,97265.85
2022-12-04T08:32:48.778Z,97263.41
2022-12-04T08:35:18.856Z,97262.59
2022-12-04T08:37:48.853Z,97258.80
2022-12-04T08:40:18.789Z,97262.30
2022-12-04T08:42:48.805Z,97267.26
2022-12-04T08:45:18.805Z,97265.99
2022-12-04T08:47:52.400Z,97263.50
2022-12-04T08:50:23.314Z,97253.99
2022-12-04T08:52:53.356Z,97244.02
2022-12-04T08:55:23.512Z,97241.27
2022-12-04T08:57:53.707Z,97242.79
2022-12-04T09:00:26.447Z,97240.23
2022-12-04T09:02:56.495Z,97243.13
2022-12-04T09:05:26.649Z,97240.04
2022-12-04T09:07:59.585Z,97238.86
2022-12-04T09:10:30.922Z,97237.42
2022-12-04T09:13:01.043Z,97232.77
2022-12-04T09:15:38.964Z,97236.71
2022-12-04T09:18:14.002Z,97236.96
2022-12-04T09:20:44.524Z,97239.31
2022-12-04T09:23:14.941Z,97232.52
2022-12-04T09:25:45.779Z,97235.58
2022-12-04T09:28:16.027Z,97231.46
2022-12-04T09:30:47.068Z,97224.60
2022-12-04T09:33:16.952Z,97228.27
2022-12-04T09:35:47.276Z,97223.02
2022-12-04T09:38:17.655Z,97209.20
2022-12-04T09:41:11.502Z,97204.08
2022-12-04T09:44:02.479Z,97208.86
2022-12-04T09:46:51.399Z,97225.02
2022-12-04T09:49:30.234Z,97235.19
2022-12-04T09:52:04.252Z,97221.65
2022-12-04T09:54:42.957Z,97203.48
2022-12-04T09:57:42.753Z,97202.57
2022-12-04T10:00:16.147Z,97203.36
2022-12-04T10:02:56.006Z,97199.64
2022-12-04T10:05:50.864Z,97196.86
2022-12-04T10:08:32.400Z,97191.23
2022-12-04T10:11:01.908Z,97192.64
2022-12-04T10:13:47.647Z,97182.96
2022-12-04T10:16:29.650Z,97178.76
2022-12-04T10:19:36.589Z,97176.23
2022-12-04T10:22:13.186Z,97176.11
2022-12-04T10:24:54.074Z,97175.60
2022-12-04T10:27:46.722Z,97172.86
2022-12-04T10:30:19.836Z,97169.60
2022-12-04T10:33:12.389Z,97160.80
2022-12-04T10:35:45.826Z,97160.41
2022-12-04T10:38:39.069Z,97161.13
2022-12-04T10:41:34.558Z,97160.39
2022-12-04T10:44:05.569Z,97155.89
2022-12-04T10:46:36.309Z,97142.42
2022-12-04T10:49:10.487Z,97134.27
2022-12-04T10:51:42.341Z,97125.96
2022-12-04T10:54:26.308Z,97125.14
2022-12-04T10:56:59.362Z,97118.41
2022-12-04T10:59:30.362Z,97116.05
2022-12-04T11:02:35.076Z,97117.80
2022-12-04T11:05:23.132Z,97118.80
2022-12-04T11:07:55.415Z,97114.46
2022-12-04T11:10:43.832Z,97109.02
2022-12-04T11:13:20.976Z,97111.77
2022-12-04T11:15:54.260Z,97111.40
2022-12-04T11:18:27.094Z,97102.08
2022-12-04T11:21:07.567Z,97102.23
2022-12-04T11:23:50.210Z,97100.98
2022-12-04T11:26:42.992Z,97096.02
2022-12-04T11:29:18.784Z,97086.48
2022-12-04T11:31:52.352Z,97081.98
2022-12-04T11:34:27.459Z,97082.45
2022-12-04T11:36:58.949Z,97080.55
2022-12-04T11:39:35.733Z,97085.02
2022-12-04T11:42:36.258Z,97085.48
2022-12-04T11:45:26.824Z,97080.10
2022-12-04T11:48:02.459Z,97082.19
2022-12-04T11:50:48.664Z,97078.52
2022-12-04T11:53:23.838Z,97072.58
2022-12-04T11:56:25.409Z,97070.14
2022-12-04T11:59:13.730Z,97061.05
2022-12-04T12:02:12.249Z,97063.52
2022-12-04T12:04:54.912Z,97062.70
2022-12-04T12:07:49.642Z,97057.94
2022-12-04T12:10:28.604Z,97053.45
2022-12-04T12:13:10.954Z,97055.73
2022-12-04T12:15:57.046Z,97061.23
2022-12-04T12:18:35.394Z,97053.90
2022-12-04T12:21:18.764Z,97049.59
2022-12-04T12:24:16.790Z,97065.29
2022-12-04T12:26:47.618Z,97055.89
2022-12-04T12:29:49.993Z,97056.06
2022-12-04T12:32:44.938Z,97056.02
2022-12-04T12:35:28.381Z,97052.98
2022-12-04T12:38:06.473Z,97054.11
2022-12-04T12:40:45.593Z,97053.25
2022-12-04T12:43:36.242Z,97052.35
2022-12-04T12:46:49.404Z,97047.82
2022-12-04T12:49:25.860Z,97046.48
2022-12-04T12:52:42.727Z,97053.73
2022-12-04T12:55:33.789Z,97046.86
2022-12-04T12:58:26.152Z,97047.80
2022-12-04T13:01:25.153Z,97049.52
2022-12-04T13:04:28.842Z,97049.60
2022-12-04T13:07:12.955Z,97051.86
2022-12-04T13:09:51.514Z,97050.80
2022-12-04T13:12:23.225Z,97046.23
2022-12-04T13:14:52.597Z,97045.17
2022-12-04T13:17:37.716Z,97038.79
2022-12-04T13:20:37.937Z,97037.98
2022-12-04T13:23:28.918Z,97033.27
2022-12-04T13:26:36.665Z,97033.87
2022-12-04T13:30:02.397Z,97035.36
2022-12-04T13:32:50.785Z,97037.54
2022-12-04T13:35:44.913Z,97037.55
2022-12-04T13:38:24.130Z,97036.55
2022-12-04T13:40:57.758Z,97032.80
2022-12-04T13:43:42.966Z,97031.63
2022-12-04T13:46:31.514Z,97033.69
2022-12-04T13:49:27.828Z,97035.27
2022-12-04T13:51:59.588Z,97030.48
2022-12-04T13:54:37.402Z,97026.98
2022-12-04T13:57:19.902Z,97027.57
2022-12-04T13:59:50.504Z,97019.39
2022-12-04T14:02:26.799Z,97020.44
2022-12-04T14:05:08.562Z,97021.39
2022-12-04T14:08:05.710Z,97019.33
2022-12-04T14:10:39.821Z,97012.73
2022-12-04T14:13:24.372Z,97017.92
2022-12-04T14:16:32.948Z,97018.90
2022-12-04T14:19:04.787Z,97023.91
2022-12-04T14:21:42.435Z,97026.86
2022-12-04T14:24:47.860Z,97027.64
2022-12-04T14:27:46.496Z,97028.70
2022-12-04T14:30:24.207Z,97033.40
2022-12-04T14:33:24.742Z,97038.70
2022-12-04T14:35:59.958Z,97044.16
2022-12-04T14:38:32.778Z,97047.32
2022-12-04T14:41:02.113Z,97045.34
2022-12-04T14:43:40.130Z,97044.35
2022-12-04T14:46:37.567Z,97049.73
2022-12-04T14:49:26.368Z,97046.83
2022-12-04T14:52:12.744Z,97049.55
2022-12-04T14:55:07.492Z,97044.41
2022-12-04T14:58:30.376Z,97049.10
2022-12-04T15:01:08.642Z,97060.43
2022-12-04T15:03:46.461Z,97063.77
2022-12-04T15:06:21.053Z,97066.56
2022-12-04T15:09:20.871Z,97066.56
2022-12-04T15:12:18.768Z,97062.21
2022-12-04T15:14:50.682Z,97065.36
2022-12-04T15:17:20.628Z,97063.70
2022-12-04T15:19:50.756Z,97067.86
2022-12-04T15:22:29.182Z,97068.98
2022-12-04T15:25:00.422Z,97070.70
2022-12-04T15:27:32.991Z,97071.73
2022-12-04T15:30:04.525Z,97070.41
2022-12-04T15:32:35.168Z,97075.06
2022-12-04T15:35:17.541Z,97072.95
2022-12-04T15:37:47.541Z,97078.48
2022-12-04T15:40:23.907Z,97077.75
2022-12-04T15:42:55.484Z,97074.88
2022-12-04T15:45:35.481Z,97076.80
2022-12-04T15:48:05.524Z,97074.23
2022-12-04T15:50:37.721Z,97073.31
2022-12-04T15:53:22.173Z,97070.86
2022-12-04T15:56:08.147Z,97070.48
2022-12-04T15:58:50.440Z,97073.13
2022-12-04T16:01:21.482Z,97075.76
2022-12-04T16:03:54.327Z,97074.16
2022-12-04T16:06:24.558Z,97071.29
2022-12-04T16:09:13.168Z,97077.06
2022-12-04T16:11:44.281Z,97083.02
2022-12-04T16:14:16.300Z,97082.20
2022-12-04T16:16:50.774Z,97083.07
2022-12-04T16:19:37.050Z,97083.33
2022-12-04T16:22:20.790Z,97085.64
2022-12-04T16:24:51.905Z,97084.21
2022-12-04T16:27:24.113Z,97090.48
2022-12-04T16:29:56.595Z,97091.16
2022-12-04T16:32:31.796Z,97091.39
2022-12-04T16:35:02.038Z,97089.90
2022-12-04T16:37:32.560Z,97082.27
2022-12-04T16:40:07.604Z,97084.52
2022-12-04T16:42:37.520Z,97081.67
2022-12-04T16:45:23.419Z,97080.95
2022-12-04T16:47:53.528Z,97084.41
2022-12-04T16:50:23.539Z,97088.64
2022-12-04T16:52:54.005Z,97088.20
2022-12-04T16:55:36.309Z,97093.87
2022-12-04T16:58:09.981Z,97091.95
2022-12-04T17:00:43.937Z,97089.95
2022-12-04T17:03:31.475Z,97083.96
2022-12-04T17:06:04.170Z,97085.02
2022-12-04T17:08:34.432Z,97090.66
2022-12-04T17:11:04.088Z,97084.78
2022-12-04T17:13:37.957Z,97088.88
2022-12-04T17:16:15.077Z,97084.21
2022-12-04T17:18:45.609Z,97092.77
2022-12-04T17:21:15.875Z,97095.66
2022-12-04T17:23:46.259Z,97103.65
2022-12-04T17:26:16.675Z,97102.84
2022-12-04T17:28:51.338Z,97104.38
2022-12-04T17:31:31.024Z,97111.48
2022-12-04T17:34:00.689Z,97112.45
2022-12-04T17:36:31.053Z,97119.02
2022-12-04T17:39:04.795Z,97120.77
2022-12-04T17:41:36.582Z,97126.77
2022-12-04T17:44:06.584Z,97122.66
2022-12-04T17:46:37.249Z,97119.20
2022-12-04T17:49:07.719Z,97116.41
2022-12-04T17:51:38.143Z,97115.05
2022-12-04T17:54:09.041Z,97109.66
2022-12-04T17:56:43.297Z,97112.47
2022-12-04T17:59:16.556Z,97111.28
2022-12-04T18:01:46.921Z,97110.62
2022-12-04T18:04:19.793Z,97109.16
2022-12-04T18:06:50.377Z,97108.55
2022-12-04T18:09:20.876Z,97103.73
2022-12-04T18:11:51.259Z,97108.68
2022-12-04T18:14:24.269Z,97110.26
2022-12-04T18:16:58.597Z,97116.19
2022-12-04T18:19:29.603Z,97114.39
2022-12-04T18:22:00.189Z,97118.49
2022-12-04T18:24:30.201Z,97118.94
2022-12-04T18:27:00.121Z,97117.33
2022-12-04T18:29:30.574Z,97119.88
2022-12-04T18:32:01.124Z,97121.52
2022-12-04T18:34:32.316Z,97122.68
2022-12-04T18:37:02.547Z,97122.41
2022-12-04T18:39:32.896Z,97124.61
2022-12-04T18:42:03.211Z,97125.16
2022-12-04T18:44:33.484Z,97124.52
2022-12-04T18:47:03.829Z,97131.47
2022-12-04T18:49:34.293Z,97130.62
2022-12-04T18:52:04.626Z,97132.45
2022-12-04T18:54:34.905Z,97133.56
2022-12-04T18:57:05.044Z,97136.08
2022-12-04T18:59:36.844Z,97134.61
2022-12-04T19:02:07.121Z,97132.48
2022-12-04T19:04:37.192Z,97132.41
2022-12-04T19:07:07.086Z,97132.78
2022-12-04T19:10:09.285Z,97132.45
2022-12-04T19:12:27.116Z,97130.60
2022-12-04T19:14:56.995Z,97135.38
2022-12-04T19:17:27.192Z,97134.45
2022-12-04T19:19:56.266Z,97139.08
2022-12-04T19:22:26.644Z,97138.98
2022-12-04T19:24:56.596Z,97136.11
2022-12-04T19:27:28.048Z,97133.86
2022-12-04T19:29:58.364Z,97138.52
2022-12-04T19:32:28.785Z,97142.01
2022-12-04T19:34:58.840Z,97147.03
2022-12-04T19:37:28.875Z,97149.60
2022-12-04T19:39:59.211Z,97154.14
2022-12-04T19:42:31.541Z,97153.94
2022-12-04T19:45:01.953Z,97151.61
2022-12-04T19:47:33.058Z,97151.40
2022-12-04T19:50:03.206Z,97152.98
2022-12-04T19:52:36.783Z,97156.84
2022-12-04T19:55:09.383Z,97163.93
2022-12-04T19:57:39.617Z,97162.98
2022-12-04T20:00:10.638Z,97162.35
2022-12-04T20:02:43.896Z,97162.97
2022-12-04T20:05:13.948Z,97171.73
2022-12-04T20:07:44.231Z,97166.31
2022-12-04T20:10:14.286Z,97165.61
2022-12-04T20:12:44.570Z,97165.58
2022-12-04T20:15:14.587Z,97166.20
2022-12-04T20:17:44.621Z,97169.83
2022-12-04T20:20:14.444Z,97169.70
2022-12-04T20:22:44.748Z,97166.29
2022-12-04T20:25:14.423Z,97170.18
2022-12-04T20:27:44.621Z,97173.60
2022-12-04T20:30:14.515Z,97173.25
2022-12-04T20:32:44.763Z,97175.22
2022-12-04T20:35:15.225Z,97180.81
2022-12-04T20:37:45.455Z,97175.26
2022-12-04T20:40:15.577Z,97180.92
2022-12-04T20:42:45.746Z,97186.08
2022-12-04T20:45:15.847Z,97186.67
2022-12-04T20:47:46.290Z,97180.93
2022-12-04T20:50:16.660Z,97180.89
2022-12-04T20:52:46.523Z,97179.86
2022-12-04T20:55:16.644Z,97186.24
2022-12-04T20:57:47.086Z,97185.53
2022-12-04T21:00:18.115Z,97185.02
2022-12-04T21:02:46.998Z,97188.49
2022-12-04T21:05:16.818Z,97192.27
2022-12-04T21:07:47.199Z,97185.54
2022-12-04T21:10:17.394Z,97184.84
2022-12-04T21:13:07.290Z,97188.65
2022-12-04T21:15:57.377Z,97186.15
2022-12-04T21:18:27.557Z,97189.64
2022-12-04T21:20:56.498Z,97193.84
2022-12-04T21:23:25.339Z,97196.94
2022-12-04T21:25:58.010Z,97191.77
2022-12-04T21:28:27.925Z,97190.86
2022-12-04T21:31:07.485Z,97191.30
2022-12-04T21:33:37.974Z,97189.54
2022-12-04T21:36:11.183Z,97189.02
2022-12-04T21:38:41.557Z,97187.27
2022-12-04T21:41:33.076Z,97195.06
2022-12-04T21:44:07.186Z,97190.36
2022-12-04T21:46:37.593Z,97186.80
2022-12-04T21:49:07.534Z,97190.29
2022-12-04T21:51:56.780Z,97191.52
2022-12-04T21:54:28.780Z,97189.33
2022-12-04T21:56:59.294Z,97194.66
2022-12-04T21:59:29.111Z,97192.08
2022-12-04T22:01:59.697Z,97193.40
2022-12-04T22:04:29.849Z,97190.02
2022-12-04T22:06:59.911Z,97191.21
2022-12-04T22:09:29.865Z,97188.69
2022-12-04T22:11:59.936Z,97192.27
2022-12-04T22:14:29.996Z,97191.90
2022-12-04T22:17:00.450Z,97197.92
2022-12-04T22:19:30.856Z,97197.07
2022-12-04T22:22:00.937Z,97189.75
2022-12-04T22:24:31.007Z,97187.23
2022-12-04T22:27:00.339Z,97185.05
2022-12-04T22:32:21.598Z,97180.77
2022-12-04T22:34:52.041Z,97182.85
2022-12-04T22:37:22.439Z,97182.30
2022-12-04T22:39:52.702Z,97183.54
2022-12-04T22:42:23.058Z,97182.06
2022-12-04T22:44:53.317Z,97185.55
2022-12-04T22:47:23.597Z,97191.41
2022-12-04T22:49:53.577Z,97189.86
2022-12-04T22:52:23.932Z,97187.98
2022-12-04T22:54:53.794Z,97189.14
2022-12-04T22:57:24.471Z,97189.10
2022-12-04T22:59:54.707Z,97189.27
2022-12-04T23:02:25.268Z,97191.48
2022-12-04T23:04:55.636Z,97193.00
2022-12-04T23:07:25.724Z,97196.20
2022-12-04T23:09:56.154Z,97194.77
2022-12-04T23:12:28.039Z,97195.92
2022-12-04T23:14:57.944Z,97199.48
2022-12-04T23:17:28.502Z,97196.81
2022-12-04T23:19:58.499Z,97195.17
2022-12-04T23:22:29.087Z,97193.98
2022-12-04T23:24:59.417Z,97194.09
2022-12-04T23:27:31.945Z,97193.64
2022-12-04T23:30:02.945Z,97189.95
2022-12-04T23:32:33.104Z,97190.50
2022-12-04T23:35:03.082Z,97188.08
2022-12-04T23:37:33.027Z,97189.48
2022-12-04T23:40:04.565Z,97188.36
2022-12-04T23:42:34.097Z,97189.24
2022-12-04T23:45:07.655Z,97190.02
2022-12-04T23:47:37.496Z,97195.55
2022-12-04T23:50:07.282Z,97195.02
2022-12-04T23:52:37.304Z,97197.82
2022-12-04T23:55:08.329Z,97190.30
2022-12-04T23:57:37.148Z,97188.00
